Time;durP1;ratioP1;P1;durP2;ratioP2;P2;SDS_P1;SDS_P2;PMS_P1;PMS_P2;Temp;Humidity;BMP_temperature;BMP_pressure;BME280_temperature;BME280_humidity;BME280_pressure;Samples;Min_cycle;Max_cycle;Signal;HPM_P1;HPM_P2
2023/07/11 00:01:44;;;;;;;4.97;1.50;;;;;;;;;;5034670;28;20424;-81
2023/07/11 00:04:10;;;;;;;2.63;1.13;;;;;;;;;;5034595;28;20212;-81
2023/07/11 00:06:36;;;;;;;2.93;1.10;;;;;;;;;;5035853;28;20170;-81
2023/07/11 00:09:02;;;;;;;5.03;1.00;;;;;;;;;;5054528;28;20750;-81
2023/07/11 00:11:28;;;;;;;3.00;1.20;;;;;;;;;;5054231;28;20224;-81
2023/07/11 00:13:55;;;;;;;6.47;1.90;;;;;;;;;;5054063;28;20502;-81
2023/07/11 00:16:22;;;;;;;5.30;1.97;;;;;;;;;;5054426;28;20407;-81
2023/07/11 00:18:48;;;;;;;3.63;1.40;;;;;;;;;;5054299;28;20418;-81
2023/07/11 00:21:14;;;;;;;2.70;1.10;;;;;;;;;;5052971;28;20428;-81
2023/07/11 00:23:41;;;;;;;4.20;1.00;;;;;;;;;;5054265;28;20556;-81
2023/07/11 00:26:07;;;;;;;4.20;1.50;;;;;;;;;;5052867;28;20477;-81
2023/07/11 00:28:33;;;;;;;4.60;1.53;;;;;;;;;;5053807;28;20768;-81
2023/07/11 00:31:00;;;;;;;5.93;1.63;;;;;;;;;;5054091;28;20421;-81
2023/07/11 00:33:26;;;;;;;4.10;1.47;;;;;;;;;;5053975;28;20737;-81
2023/07/11 00:35:53;;;;;;;3.77;1.03;;;;;;;;;;5053614;28;20423;-81
2023/07/11 00:38:19;;;;;;;4.87;1.60;;;;;;;;;;5053961;28;20408;-81
2023/07/11 00:40:47;;;;;;;3.00;1.13;;;;;;;;;;5053956;28;20766;-81
2023/07/11 00:43:14;;;;;;;5.13;1.57;;;;;;;;;;5053395;28;20913;-81
2023/07/11 00:46:02;;;;;;;5.13;1.60;;;;;;;;;;5053460;28;20990;-82
2023/07/11 00:48:28;;;;;;;3.27;1.40;;;;;;;;;;5053692;28;20498;-82
2023/07/11 00:50:55;;;;;;;3.50;1.17;;;;;;;;;;5053702;28;20417;-82
2023/07/11 00:53:21;;;;;;;5.40;0.93;;;;;;;;;;5053472;28;20493;-82
2023/07/11 00:55:48;;;;;;;4.50;1.43;;;;;;;;;;5053592;28;20424;-82
2023/07/11 00:58:15;;;;;;;3.50;1.50;;;;;;;;;;5051920;28;20428;-81
2023/07/11 01:00:41;;;;;;;2.23;1.30;;;;;;;;;;5052189;28;20426;-81
2023/07/11 01:03:07;;;;;;;6.70;1.50;;;;;;;;;;5053349;28;20454;-82
2023/07/11 01:05:33;;;;;;;1.70;1.13;;;;;;;;;;5053284;28;20983;-82
2023/07/11 01:07:59;;;;;;;3.47;0.93;;;;;;;;;;5052479;28;20400;-82
2023/07/11 01:10:25;;;;;;;1.97;0.87;;;;;;;;;;5051827;28;20425;-81
2023/07/11 01:12:57;;;;;;;4.10;1.03;;;;;;;;;;5053003;28;20514;-82
2023/07/11 01:15:23;;;;;;;4.53;1.13;;;;;;;;;;5052013;28;20479;-82
2023/07/11 01:17:49;;;;;;;3.10;0.93;;;;;;;;;;5053185;28;20814;-82
2023/07/11 01:20:15;;;;;;;3.00;1.20;;;;;;;;;;5053292;28;20419;-82
2023/07/11 01:22:41;;;;;;;4.23;1.30;;;;;;;;;;5053253;28;20177;-81
2023/07/11 01:25:14;;;;;;;4.03;1.40;;;;;;;;;;5053199;28;20179;-82
2023/07/11 01:27:42;;;;;;;3.87;1.13;;;;;;;;;;5052801;28;20445;-81
2023/07/11 01:30:10;;;;;;;3.50;1.03;;;;;;;;;;5053082;28;20771;-82
2023/07/11 01:32:36;;;;;;;4.37;1.30;;;;;;;;;;5053027;28;20429;-81
2023/07/11 01:35:03;;;;;;;5.20;1.33;;;;;;;;;;5053039;28;20474;-82
2023/07/11 01:37:29;;;;;;;4.20;1.17;;;;;;;;;;5053027;28;20410;-82
2023/07/11 01:39:55;;;;;;;1.83;0.90;;;;;;;;;;5053010;28;20769;-82
2023/07/11 01:42:21;;;;;;;3.50;1.20;;;;;;;;;;5052580;28;20410;-81
2023/07/11 01:44:48;;;;;;;2.50;1.10;;;;;;;;;;5051675;28;20183;-81
2023/07/11 01:47:14;;;;;;;2.87;1.13;;;;;;;;;;5052953;28;20507;-81
2023/07/11 01:49:40;;;;;;;2.50;1.33;;;;;;;;;;5052898;28;20845;-81
2023/07/11 01:52:13;;;;;;;1.90;0.93;;;;;;;;;;5052903;28;20179;-81
2023/07/11 01:54:39;;;;;;;4.70;1.10;;;;;;;;;;5052778;28;20987;-80
2023/07/11 01:57:07;;;;;;;3.87;1.40;;;;;;;;;;5051173;28;20482;-80
2023/07/11 01:59:33;;;;;;;2.67;1.50;;;;;;;;;;5052697;28;20418;-80
2023/07/11 02:01:59;;;;;;;3.53;1.43;;;;;;;;;;5052810;28;20769;-80
2023/07/11 02:04:25;;;;;;;3.20;1.20;;;;;;;;;;5052757;28;20423;-80
2023/07/11 02:06:51;;;;;;;4.13;1.77;;;;;;;;;;5052700;28;20229;-81
2023/07/11 02:09:18;;;;;;;7.23;3.30;;;;;;;;;;5052684;28;20417;-81
2023/07/11 02:11:44;;;;;;;6.00;3.53;;;;;;;;;;5052520;28;20462;-81
2023/07/11 02:14:12;;;;;;;4.23;2.30;;;;;;;;;;5052298;28;20482;-81
2023/07/11 02:16:38;;;;;;;3.10;1.83;;;;;;;;;;5052689;28;20423;-81
2023/07/11 02:19:04;;;;;;;5.47;2.20;;;;;;;;;;5054506;28;20936;-81
2023/07/11 02:21:30;;;;;;;3.90;2.03;;;;;;;;;;5056507;28;20505;-81
2023/07/11 02:23:56;;;;;;;5.13;2.43;;;;;;;;;;5056526;28;20417;-81
2023/07/11 02:26:23;;;;;;;3.50;1.63;;;;;;;;;;5056472;28;20410;-81
2023/07/11 02:28:52;;;;;;;5.43;1.87;;;;;;;;;;5056067;28;20282;-80
2023/07/11 02:31:17;;;;;;;3.80;2.13;;;;;;;;;;5056304;28;20429;-81
2023/07/11 02:33:44;;;;;;;4.20;1.40;;;;;;;;;;5056235;28;20457;-81
2023/07/11 02:36:10;;;;;;;4.57;2.27;;;;;;;;;;5056286;28;20174;-80
2023/07/11 02:38:36;;;;;;;4.10;2.40;;;;;;;;;;5056219;28;20885;-81
2023/07/11 02:41:01;;;;;;;4.50;2.40;;;;;;;;;;5056194;28;20185;-80
2023/07/11 02:43:27;;;;;;;3.67;1.80;;;;;;;;;;5055792;28;20510;-81
2023/07/11 02:45:54;;;;;;;7.53;3.07;;;;;;;;;;5056126;28;20203;-80
2023/07/11 02:48:20;;;;;;;6.00;2.27;;;;;;;;;;5056027;28;20536;-80
2023/07/11 02:50:46;;;;;;;5.40;2.10;;;;;;;;;;5056001;28;20506;-81
2023/07/11 02:53:12;;;;;;;5.57;2.23;;;;;;;;;;5055854;28;20442;-82
2023/07/11 02:55:41;;;;;;;6.30;2.10;;;;;;;;;;5055860;28;20282;-81
2023/07/11 02:58:07;;;;;;;3.90;2.10;;;;;;;;;;5055389;28;20212;-82
2023/07/11 03:00:32;;;;;;;3.77;2.67;;;;;;;;;;5055723;28;20799;-81
2023/07/11 03:02:58;;;;;;;7.60;1.70;;;;;;;;;;5055788;28;20915;-82
2023/07/11 03:05:24;;;;;;;3.33;1.80;;;;;;;;;;5055764;28;20418;-82
2023/07/11 03:07:50;;;;;;;5.03;2.33;;;;;;;;;;5054385;28;20186;-81
2023/07/11 03:10:16;;;;;;;11.53;2.80;;;;;;;;;;5054329;28;20411;-81
2023/07/11 03:12:42;;;;;;;5.00;3.37;;;;;;;;;;5055215;28;20628;-82
2023/07/11 03:15:08;;;;;;;4.30;2.13;;;;;;;;;;5055485;28;20473;-82
2023/07/11 03:17:34;;;;;;;5.23;2.10;;;;;;;;;;5055504;28;20184;-81
2023/07/11 03:20:00;;;;;;;5.10;2.47;;;;;;;;;;5055490;28;20418;-81
2023/07/11 03:22:26;;;;;;;5.83;1.70;;;;;;;;;;5055431;28;20406;-81
2023/07/11 03:24:52;;;;;;;4.20;2.37;;;;;;;;;;5055524;28;20792;-81
2023/07/11 03:27:18;;;;;;;5.53;2.67;;;;;;;;;;5054838;28;20496;-81
2023/07/11 03:29:44;;;;;;;6.20;2.30;;;;;;;;;;5054312;28;20185;-81
2023/07/11 03:32:10;;;;;;;6.63;3.07;;;;;;;;;;5054972;28;20406;-81
2023/07/11 03:34:37;;;;;;;3.60;2.77;;;;;;;;;;5055083;28;20480;-81
2023/07/11 03:37:03;;;;;;;5.40;3.20;;;;;;;;;;5055203;28;20549;-80
2023/07/11 03:39:29;;;;;;;5.93;3.17;;;;;;;;;;5055064;28;20453;-81
2023/07/11 03:41:55;;;;;;;4.37;2.80;;;;;;;;;;5054753;28;20417;-80
2023/07/11 03:44:21;;;;;;;3.97;1.83;;;;;;;;;;5054975;28;20421;-81
2023/07/11 03:46:46;;;;;;;9.10;3.67;;;;;;;;;;5054915;28;20417;-80
2023/07/11 03:49:12;;;;;;;4.37;2.20;;;;;;;;;;5054944;28;20427;-81
2023/07/11 03:51:38;;;;;;;9.17;2.90;;;;;;;;;;5054863;28;20405;-81
2023/07/11 03:54:04;;;;;;;6.77;3.00;;;;;;;;;;5054746;28;20211;-81
2023/07/11 03:56:30;;;;;;;5.73;2.30;;;;;;;;;;5053500;28;20425;-81
2023/07/11 03:58:56;;;;;;;4.87;3.10;;;;;;;;;;5054378;28;20772;-80
2023/07/11 04:01:22;;;;;;;5.90;3.20;;;;;;;;;;5053448;28;20183;-80
2023/07/11 04:03:48;;;;;;;5.17;2.90;;;;;;;;;;5054676;28;20413;-81
2023/07/11 04:06:14;;;;;;;4.40;2.33;;;;;;;;;;5054631;28;20506;-81
2023/07/11 04:08:40;;;;;;;4.67;2.93;;;;;;;;;;5053270;28;20947;-81
2023/07/11 04:11:06;;;;;;;5.27;2.60;;;;;;;;;;5053059;28;20476;-80
2023/07/11 04:13:32;;;;;;;4.37;2.90;;;;;;;;;;5054007;28;20453;-80
2023/07/11 04:15:58;;;;;;;6.57;5.00;;;;;;;;;;5054395;28;20554;-81
2023/07/11 04:18:24;;;;;;;6.10;3.03;;;;;;;;;;5053076;28;20410;-81
2023/07/11 04:20:50;;;;;;;8.93;2.90;;;;;;;;;;5054283;28;20206;-81
2023/07/11 04:23:16;;;;;;;6.33;2.80;;;;;;;;;;5054288;28;20411;-81
2023/07/11 04:25:42;;;;;;;5.63;2.87;;;;;;;;;;5054117;28;20235;-80
2023/07/11 04:28:08;;;;;;;8.23;1.93;;;;;;;;;;5053800;28;20936;-81
2023/07/11 04:30:35;;;;;;;4.20;2.50;;;;;;;;;;5054106;28;20209;-81
2023/07/11 04:33:01;;;;;;;6.47;3.27;;;;;;;;;;5054003;28;20817;-81
2023/07/11 04:35:27;;;;;;;5.70;2.53;;;;;;;;;;5054004;28;20474;-81
2023/07/11 04:37:53;;;;;;;7.47;2.40;;;;;;;;;;5053999;28;20176;-81
2023/07/11 04:40:19;;;;;;;5.53;3.20;;;;;;;;;;5053904;28;20680;-80
2023/07/11 04:42:44;;;;;;;5.20;2.20;;;;;;;;;;5053350;28;21010;-81
2023/07/11 04:45:10;;;;;;;6.60;2.90;;;;;;;;;;5053866;28;20422;-85
2023/07/11 04:47:36;;;;;;;9.13;3.20;;;;;;;;;;5048218;28;20448;-84
2023/07/11 04:50:05;;;;;;;6.13;3.07;;;;;;;;;;5042315;28;20198;-83
2023/07/11 04:52:32;;;;;;;6.50;3.30;;;;;;;;;;5037545;28;20486;-85
2023/07/11 04:54:57;;;;;;;4.23;2.57;;;;;;;;;;5033082;28;20528;-84
2023/07/11 04:57:24;;;;;;;6.43;3.30;;;;;;;;;;5033377;28;20831;-83
2023/07/11 04:59:50;;;;;;;8.10;2.20;;;;;;;;;;5033580;28;20244;-85
2023/07/11 05:02:16;;;;;;;7.37;2.80;;;;;;;;;;5033032;28;20444;-85
2023/07/11 05:04:42;;;;;;;7.73;3.00;;;;;;;;;;5032862;28;20648;-83
2023/07/11 05:07:10;;;;;;;5.83;3.27;;;;;;;;;;5033603;28;20263;-88
2023/07/11 05:09:40;;;;;;;5.60;2.70;;;;;;;;;;5033601;28;20251;-86
2023/07/11 05:12:06;;;;;;;9.63;2.83;;;;;;;;;;5032879;28;20467;-84
2023/07/11 05:14:32;;;;;;;5.97;3.00;;;;;;;;;;5032034;28;21027;-83
2023/07/11 05:16:58;;;;;;;8.63;2.87;;;;;;;;;;5033379;28;20409;-84
2023/07/11 05:19:24;;;;;;;7.77;2.80;;;;;;;;;;5033449;28;20422;-85
2023/07/11 05:21:50;;;;;;;7.40;2.40;;;;;;;;;;5033586;28;20223;-84
2023/07/11 05:24:16;;;;;;;8.27;2.50;;;;;;;;;;5033276;28;20420;-82
2023/07/11 05:26:41;;;;;;;6.20;2.00;;;;;;;;;;5032805;28;20514;-83
2023/07/11 05:29:08;;;;;;;3.63;1.53;;;;;;;;;;5033065;28;20301;-83
2023/07/11 05:31:34;;;;;;;5.10;2.33;;;;;;;;;;5033075;28;20177;-82
2023/07/11 05:34:00;;;;;;;5.70;1.90;;;;;;;;;;5033019;28;20504;-84
2023/07/11 05:36:32;;;;;;;7.67;2.40;;;;;;;;;;5048413;28;20812;-82
2023/07/11 05:38:59;;;;;;;6.13;2.27;;;;;;;;;;5050550;28;20421;-85
2023/07/11 05:41:25;;;;;;;5.33;2.00;;;;;;;;;;5049381;28;20426;-84
2023/07/11 05:43:51;;;;;;;5.17;2.23;;;;;;;;;;5052824;28;20441;-84
2023/07/11 05:46:17;;;;;;;6.40;1.50;;;;;;;;;;5051323;28;20431;-83
2023/07/11 05:48:43;;;;;;;2.67;1.00;;;;;;;;;;5051891;28;20682;-84
2023/07/11 05:51:10;;;;;;;4.73;1.93;;;;;;;;;;5051841;28;20227;-85
2023/07/11 05:53:36;;;;;;;5.20;1.80;;;;;;;;;;5053440;28;20788;-82
2023/07/11 05:56:02;;;;;;;3.80;1.47;;;;;;;;;;5056152;28;20427;-82
2023/07/11 05:58:29;;;;;;;4.53;1.30;;;;;;;;;;5035360;28;20788;-83
2023/07/11 06:00:55;;;;;;;3.13;1.20;;;;;;;;;;5035727;28;20513;-81
2023/07/11 06:03:25;;;;;;;4.33;1.77;;;;;;;;;;5036904;28;20403;-83
2023/07/11 06:05:51;;;;;;;4.70;1.43;;;;;;;;;;5046643;28;20422;-82
2023/07/11 06:08:17;;;;;;;3.17;1.13;;;;;;;;;;5056129;28;20750;-83
2023/07/11 06:10:44;;;;;;;2.47;1.27;;;;;;;;;;5055929;28;20493;-82
2023/07/11 06:13:13;;;;;;;5.07;1.37;;;;;;;;;;5055604;28;20840;-83
2023/07/11 06:15:39;;;;;;;4.13;1.43;;;;;;;;;;5054604;28;20493;-85
2023/07/11 06:18:06;;;;;;;5.73;1.23;;;;;;;;;;5055667;28;20420;-83
2023/07/11 06:20:31;;;;;;;3.07;1.33;;;;;;;;;;5056259;28;20454;-82
2023/07/11 06:22:57;;;;;;;3.53;1.23;;;;;;;;;;5054922;28;20492;-84
2023/07/11 06:25:23;;;;;;;3.10;1.50;;;;;;;;;;5056444;28;20721;-82
2023/07/11 06:27:49;;;;;;;3.87;1.30;;;;;;;;;;5056064;28;20178;-85
2023/07/11 06:30:15;;;;;;;3.20;0.87;;;;;;;;;;5056260;28;20422;-84
2023/07/11 06:32:41;;;;;;;3.50;0.90;;;;;;;;;;5056193;28;20419;-82
2023/07/11 06:35:07;;;;;;;3.67;1.10;;;;;;;;;;5056206;28;20470;-88
2023/07/11 06:37:33;;;;;;;2.90;0.90;;;;;;;;;;5057662;28;20691;-84
2023/07/11 06:39:59;;;;;;;4.73;1.17;;;;;;;;;;5056087;28;20429;-83
2023/07/11 06:42:28;;;;;;;2.23;0.90;;;;;;;;;;5055752;28;20204;-84
2023/07/11 06:44:54;;;;;;;2.63;0.90;;;;;;;;;;5054808;28;20187;-82
2023/07/11 06:47:20;;;;;;;4.60;1.20;;;;;;;;;;5055992;28;20411;-83
2023/07/11 06:49:47;;;;;;;3.03;0.83;;;;;;;;;;5056077;28;20176;-84
2023/07/11 06:52:12;;;;;;;3.93;0.97;;;;;;;;;;5055825;28;20178;-85
2023/07/11 06:54:38;;;;;;;6.87;1.30;;;;;;;;;;5054547;28;20474;-85
2023/07/11 06:57:04;;;;;;;3.23;1.07;;;;;;;;;;5055490;28;20455;-85
2023/07/11 06:59:30;;;;;;;2.50;0.93;;;;;;;;;;5055961;28;20194;-85
2023/07/11 07:01:56;;;;;;;3.47;0.90;;;;;;;;;;5055790;28;20421;-83
2023/07/11 07:04:22;;;;;;;2.70;0.50;;;;;;;;;;5055695;28;20571;-81
2023/07/11 07:06:51;;;;;;;4.30;0.93;;;;;;;;;;5054443;28;20776;-83
2023/07/11 07:09:18;;;;;;;3.60;1.17;;;;;;;;;;5055567;28;20169;-82
2023/07/11 07:11:44;;;;;;;2.43;0.70;;;;;;;;;;5055089;28;20519;-84
2023/07/11 07:14:10;;;;;;;2.57;0.33;;;;;;;;;;5055442;28;20521;-86
2023/07/11 07:16:37;;;;;;;1.40;0.43;;;;;;;;;;5055545;28;20189;-87
2023/07/11 07:19:04;;;;;;;5.37;1.17;;;;;;;;;;5055734;28;20474;-86
2023/07/11 07:21:30;;;;;;;3.50;0.43;;;;;;;;;;5054275;28;20412;-93
2023/07/11 07:23:55;;;;;;;2.80;0.40;;;;;;;;;;5054118;28;20516;-90
2023/07/11 07:26:21;;;;;;;5.73;1.27;;;;;;;;;;5053888;28;20423;-88
2023/07/11 07:28:47;;;;;;;3.50;0.80;;;;;;;;;;5055503;28;20893;-86
2023/07/11 07:31:13;;;;;;;3.93;1.20;;;;;;;;;;5055449;28;20212;-90
2023/07/11 07:33:40;;;;;;;2.67;0.67;;;;;;;;;;5055788;28;20201;-87
2023/07/11 07:36:07;;;;;;;5.20;0.63;;;;;;;;;;5058528;28;20416;-86
2023/07/11 07:38:33;;;;;;;2.10;0.67;;;;;;;;;;5061659;28;20498;-88
2023/07/11 07:41:01;;;;;;;3.03;0.73;;;;;;;;;;5054270;28;20424;-89
2023/07/11 07:43:27;;;;;;;3.53;0.60;;;;;;;;;;5055138;28;20495;-90
2023/07/11 07:45:54;;;;;;;2.03;0.70;;;;;;;;;;5055374;28;20775;-88
2023/07/11 07:48:20;;;;;;;3.20;0.77;;;;;;;;;;5055043;28;20415;-88
2023/07/11 07:50:46;;;;;;;1.87;0.50;;;;;;;;;;5055456;28;20412;-89
2023/07/11 07:53:13;;;;;;;3.90;1.47;;;;;;;;;;5053998;28;20428;-91
2023/07/11 07:55:39;;;;;;;2.83;0.60;;;;;;;;;;5055214;28;20514;-86
2023/07/11 07:58:06;;;;;;;4.70;0.80;;;;;;;;;;5054608;28;20988;-84
2023/07/11 08:00:35;;;;;;;3.40;0.70;;;;;;;;;;5054793;28;20412;-94
2023/07/11 08:03:01;;;;;;;4.13;1.07;;;;;;;;;;5055142;28;20409;-90
2023/07/11 08:05:27;;;;;;;5.50;2.43;;;;;;;;;;5055189;28;20420;-96
2023/07/11 08:07:53;;;;;;;2.60;0.67;;;;;;;;;;5054845;28;20182;-91
2023/07/11 08:10:19;;;;;;;4.10;2.77;;;;;;;;;;5054797;28;20207;-90
2023/07/11 08:12:45;;;;;;;1.30;0.50;;;;;;;;;;5054369;28;20646;-88
2023/07/11 08:15:12;;;;;;;2.63;0.77;;;;;;;;;;5054716;28;20213;-85
2023/07/11 08:17:38;;;;;;;3.27;1.80;;;;;;;;;;5054011;28;20405;-89
2023/07/11 08:20:04;;;;;;;2.23;0.83;;;;;;;;;;5054663;28;20482;-83
2023/07/11 08:22:30;;;;;;;2.93;0.70;;;;;;;;;;5054540;28;20753;-80
2023/07/11 08:24:56;;;;;;;4.10;1.30;;;;;;;;;;5054471;28;20414;-92
2023/07/11 08:27:22;;;;;;;2.00;0.60;;;;;;;;;;5054105;28;20889;-91
2023/07/11 08:29:48;;;;;;;4.73;2.20;;;;;;;;;;5054623;28;20181;-89
2023/07/11 08:32:14;;;;;;;3.93;1.03;;;;;;;;;;5054820;28;20172;-91
2023/07/11 08:34:41;;;;;;;2.37;0.60;;;;;;;;;;5054145;28;20563;-86
2023/07/11 08:37:07;;;;;;;4.13;0.83;;;;;;;;;;5054020;28;20443;-90
2023/07/11 08:39:33;;;;;;;4.67;1.53;;;;;;;;;;5054066;28;20896;-87
2023/07/11 08:42:02;;;;;;;1.37;0.70;;;;;;;;;;5053669;28;20411;-89
2023/07/11 08:44:35;;;;;;;3.23;1.00;;;;;;;;;;5054169;28;20174;-86
2023/07/11 08:47:07;;;;;;;4.50;0.80;;;;;;;;;;5054076;28;20772;-90
2023/07/11 08:49:35;;;;;;;5.57;4.07;;;;;;;;;;5053970;28;20427;-90
2023/07/11 08:52:02;;;;;;;1.10;0.70;;;;;;;;;;5053924;28;20405;-88
2023/07/11 08:54:32;;;;;;;2.63;1.20;;;;;;;;;;5052431;28;20610;-89
2023/07/11 08:56:59;;;;;;;2.80;0.37;;;;;;;;;;5053546;28;20423;-92
2023/07/11 08:59:43;;;;;;;2.23;0.80;;;;;;;;;;5053791;28;20408;-91
2023/07/11 09:02:09;;;;;;;3.33;0.77;;;;;;;;;;5052487;28;20416;-89
2023/07/11 09:04:37;;;;;;;4.10;1.10;;;;;;;;;;5053871;28;20892;-90
2023/07/11 09:07:05;;;;;;;2.43;1.57;;;;;;;;;;5053746;28;20703;-92
2023/07/11 09:09:32;;;;;;;3.80;1.30;;;;;;;;;;5053382;28;20403;-89
2023/07/11 09:12:01;;;;;;;1.27;0.60;;;;;;;;;;5052891;28;20459;-86
2023/07/11 09:14:41;;;;;;;2.60;0.40;;;;;;;;;;5053355;28;20475;-91
2023/07/11 09:17:27;;;;;;;1.50;0.50;;;;;;;;;;5052618;28;20963;-91
2023/07/11 09:20:05;;;;;;;2.10;0.57;;;;;;;;;;5053159;28;20412;-90
2023/07/11 09:22:49;;;;;;;1.87;0.83;;;;;;;;;;5053033;28;20400;-87
2023/07/11 09:25:18;;;;;;;2.90;0.77;;;;;;;;;;5053076;28;20416;-86
2023/07/11 09:27:48;;;;;;;2.70;0.60;;;;;;;;;;5052012;28;20417;-87
2023/07/11 09:30:19;;;;;;;4.43;0.90;;;;;;;;;;5052895;28;20478;-86
2023/07/11 09:32:51;;;;;;;2.10;0.63;;;;;;;;;;5053071;28;20412;-86
2023/07/11 09:35:31;;;;;;;4.27;0.80;;;;;;;;;;5053228;28;20556;-84
2023/07/11 09:38:01;;;;;;;2.37;0.60;;;;;;;;;;5052854;28;20966;-84
2023/07/11 09:40:38;;;;;;;4.70;0.70;;;;;;;;;;5037371;28;20537;-84
2023/07/11 09:43:04;;;;;;;1.80;0.83;;;;;;;;;;5038006;28;20440;-83
2023/07/11 09:45:35;;;;;;;1.93;0.80;;;;;;;;;;5037182;28;20468;-89
2023/07/11 09:48:12;;;;;;;3.83;0.93;;;;;;;;;;5038590;28;20505;-87
2023/07/11 09:50:46;;;;;;;2.73;0.40;;;;;;;;;;5038691;28;20871;-83
2023/07/11 09:53:15;;;;;;;2.00;0.63;;;;;;;;;;5037596;28;21182;-84
2023/07/11 09:55:41;;;;;;;1.43;0.70;;;;;;;;;;5038692;28;20498;-91
2023/07/11 09:58:12;;;;;;;4.50;0.70;;;;;;;;;;5039823;28;20520;-92
2023/07/11 10:00:44;;;;;;;1.90;0.70;;;;;;;;;;5038210;28;20468;-88
2023/07/11 10:03:14;;;;;;;1.87;0.70;;;;;;;;;;5038516;28;20526;-88
2023/07/11 10:05:44;;;;;;;2.10;0.80;;;;;;;;;;5047441;28;20439;-86
2023/07/11 10:08:21;;;;;;;3.77;1.27;;;;;;;;;;5037648;28;20436;-87
2023/07/11 10:10:51;;;;;;;2.83;0.93;;;;;;;;;;5035362;28;20550;-81
2023/07/11 10:13:18;;;;;;;1.80;0.60;;;;;;;;;;5038924;28;20506;-82
2023/07/11 10:15:47;;;;;;;2.73;1.03;;;;;;;;;;5037719;28;20487;-85
2023/07/11 10:18:17;;;;;;;2.50;0.93;;;;;;;;;;5036451;28;20437;-87
2023/07/11 10:20:44;;;;;;;2.87;0.90;;;;;;;;;;5037408;28;21253;-89
2023/07/11 10:23:11;;;;;;;1.67;0.53;;;;;;;;;;5039212;28;20431;-79
2023/07/11 10:25:37;;;;;;;2.20;0.87;;;;;;;;;;5034174;28;20431;-90
2023/07/11 10:28:21;;;;;;;1.40;0.80;;;;;;;;;;5039264;28;20803;-91
2023/07/11 10:30:48;;;;;;;2.43;0.83;;;;;;;;;;5035654;28;20188;-84
2023/07/11 10:33:14;;;;;;;1.57;0.37;;;;;;;;;;5035859;28;20487;-83
2023/07/11 10:35:40;;;;;;;3.27;1.40;;;;;;;;;;5038381;28;21134;-86
2023/07/11 10:38:27;;;;;;;3.13;1.07;;;;;;;;;;5036695;28;20267;-83
2023/07/11 10:40:57;;;;;;;3.03;0.67;;;;;;;;;;5035680;28;20511;-92
2023/07/11 10:43:26;;;;;;;2.33;0.80;;;;;;;;;;5036644;28;20419;-80
2023/07/11 10:45:56;;;;;;;1.30;0.40;;;;;;;;;;5036295;28;20809;-89
2023/07/11 10:48:35;;;;;;;4.60;0.70;;;;;;;;;;5036176;28;20428;-83
2023/07/11 10:51:03;;;;;;;1.23;0.47;;;;;;;;;;5036238;28;20947;-80
2023/07/11 10:53:47;;;;;;;3.30;1.27;;;;;;;;;;5034760;28;20421;-86
2023/07/11 10:56:19;;;;;;;2.90;1.07;;;;;;;;;;5035716;28;20423;-87
2023/07/11 10:58:46;;;;;;;3.07;0.73;;;;;;;;;;5036270;28;20422;-84
2023/07/11 11:01:19;;;;;;;2.00;1.13;;;;;;;;;;5034678;28;20430;-86
2023/07/11 11:03:46;;;;;;;1.67;0.70;;;;;;;;;;5038475;28;20933;-85
2023/07/11 11:06:24;;;;;;;2.57;1.07;;;;;;;;;;5054665;28;20426;-80
2023/07/11 11:09:04;;;;;;;2.47;0.93;;;;;;;;;;5055856;28;20414;-93
2023/07/11 11:11:40;;;;;;;2.77;1.30;;;;;;;;;;5055288;28;20472;-89
2023/07/11 11:14:15;;;;;;;1.50;0.50;;;;;;;;;;5055685;28;20466;-86
2023/07/11 11:16:44;;;;;;;2.30;0.80;;;;;;;;;;5055968;28;20447;-80
2023/07/11 11:19:22;;;;;;;3.10;1.03;;;;;;;;;;5055301;28;20397;-80
2023/07/11 11:22:03;;;;;;;2.63;1.20;;;;;;;;;;5055557;28;20411;-84
2023/07/11 11:24:41;;;;;;;2.17;1.13;;;;;;;;;;5055322;28;20400;-80
2023/07/11 11:27:18;;;;;;;1.90;1.00;;;;;;;;;;5054762;28;20408;-85
2023/07/11 11:30:05;;;;;;;2.60;1.00;;;;;;;;;;5053530;28;20473;-82
2023/07/11 11:32:44;;;;;;;2.40;1.30;;;;;;;;;;5054995;28;20763;-84
2023/07/11 11:35:22;;;;;;;3.10;0.93;;;;;;;;;;5053575;28;21046;-80
2023/07/11 11:37:54;;;;;;;3.77;1.10;;;;;;;;;;5055033;28;20499;-81
2023/07/11 11:40:22;;;;;;;2.53;0.60;;;;;;;;;;5054977;28;20489;-81
2023/07/11 11:42:51;;;;;;;2.30;0.83;;;;;;;;;;5039628;28;20432;-81
2023/07/11 11:45:21;;;;;;;2.00;0.87;;;;;;;;;;5044034;28;20428;-84
2023/07/11 11:47:51;;;;;;;1.10;0.67;;;;;;;;;;5043838;28;20429;-79
2023/07/11 11:50:18;;;;;;;2.27;1.20;;;;;;;;;;5050002;28;20884;-81
2023/07/11 11:52:44;;;;;;;1.47;1.37;;;;;;;;;;5050268;28;21070;-79
2023/07/11 11:55:29;;;;;;;3.83;1.17;;;;;;;;;;5052659;28;20472;-81
2023/07/11 11:57:55;;;;;;;1.93;1.40;;;;;;;;;;5052476;28;20901;-85
2023/07/11 12:00:39;;;;;;;2.37;1.30;;;;;;;;;;5054569;28;20408;-87
2023/07/11 12:03:06;;;;;;;3.53;1.40;;;;;;;;;;5054312;28;20564;-81
2023/07/11 12:05:33;;;;;;;4.80;2.00;;;;;;;;;;5053692;28;20511;-86
2023/07/11 12:08:18;;;;;;;1.80;1.30;;;;;;;;;;5053615;28;20523;-86
2023/07/11 12:11:01;;;;;;;4.60;1.17;;;;;;;;;;5053553;28;20855;-81
2023/07/11 12:13:29;;;;;;;3.57;1.67;;;;;;;;;;5054044;28;20478;-83
2023/07/11 12:15:55;;;;;;;4.03;1.57;;;;;;;;;;5054027;28;20478;-83
2023/07/11 12:18:27;;;;;;;4.47;1.47;;;;;;;;;;5053733;28;20462;-90
2023/07/11 12:21:11;;;;;;;2.10;1.73;;;;;;;;;;5054172;28;20416;-90
2023/07/11 12:23:40;;;;;;;2.70;1.73;;;;;;;;;;5054276;28;20499;-82
2023/07/11 12:26:10;;;;;;;3.73;1.50;;;;;;;;;;5053364;28;20416;-87
2023/07/11 12:28:36;;;;;;;4.37;2.27;;;;;;;;;;5045558;28;20422;-81
2023/07/11 12:31:14;;;;;;;2.17;1.23;;;;;;;;;;5053796;28;20500;-85
2023/07/11 12:33:40;;;;;;;5.27;1.63;;;;;;;;;;5053840;28;20761;-88
2023/07/11 12:36:06;;;;;;;2.80;1.50;;;;;;;;;;5053761;28;20416;-80
2023/07/11 12:38:37;;;;;;;2.37;1.83;;;;;;;;;;5053990;28;20170;-83
2023/07/11 12:41:27;;;;;;;5.07;1.90;;;;;;;;;;5053270;28;20216;-84
2023/07/11 12:43:54;;;;;;;3.67;1.57;;;;;;;;;;5053004;28;20428;-88
2023/07/11 12:46:23;;;;;;;4.30;3.10;;;;;;;;;;5053774;28;20420;-82
2023/07/11 12:48:50;;;;;;;12.57;11.27;;;;;;;;;;5053676;28;20416;-87
2023/07/11 12:51:22;;;;;;;2.50;2.30;;;;;;;;;;5053825;28;20406;-91
2023/07/11 12:54:07;;;;;;;3.83;3.23;;;;;;;;;;5052567;28;20971;-84
2023/07/11 12:56:33;;;;;;;5.30;3.03;;;;;;;;;;5053107;28;20775;-88
2023/07/11 12:58:59;;;;;;;2.90;1.97;;;;;;;;;;5052366;28;20527;-85
2023/07/11 13:01:25;;;;;;;2.93;2.20;;;;;;;;;;5053009;28;20255;-80
2023/07/11 13:03:50;;;;;;;4.00;2.07;;;;;;;;;;5052417;28;20181;-79
2023/07/11 13:06:29;;;;;;;2.40;1.80;;;;;;;;;;5053352;28;20207;-79
2023/07/11 13:08:56;;;;;;;2.43;1.80;;;;;;;;;;5053217;28;20231;-81
2023/07/11 13:11:26;;;;;;;2.43;1.83;;;;;;;;;;5052608;28;20468;-86
2023/07/11 13:13:53;;;;;;;2.33;1.87;;;;;;;;;;5052303;28;20451;-80
2023/07/11 13:16:34;;;;;;;2.23;1.50;;;;;;;;;;5053094;28;20420;-83
2023/07/11 13:19:01;;;;;;;3.43;2.50;;;;;;;;;;5053421;28;20399;-86
2023/07/11 13:21:27;;;;;;;2.33;1.73;;;;;;;;;;5053210;28;20412;-89
2023/07/11 13:23:55;;;;;;;2.43;2.23;;;;;;;;;;5053162;28;20404;-86
2023/07/11 13:26:27;;;;;;;2.17;1.97;;;;;;;;;;5052883;28;20490;-85
2023/07/11 13:28:56;;;;;;;3.10;1.80;;;;;;;;;;5053297;28;20852;-79
2023/07/11 13:31:26;;;;;;;2.33;2.13;;;;;;;;;;5053306;28;20445;-86
2023/07/11 13:34:02;;;;;;;3.33;2.03;;;;;;;;;;5053140;28;20448;-86
2023/07/11 13:36:29;;;;;;;2.87;2.60;;;;;;;;;;5052906;28;20432;-84
2023/07/11 13:38:57;;;;;;;2.30;1.93;;;;;;;;;;5053264;28;20900;-83
2023/07/11 13:41:26;;;;;;;2.27;2.07;;;;;;;;;;5052371;28;20418;-80
2023/07/11 13:43:56;;;;;;;2.77;2.43;;;;;;;;;;5052981;28;20544;-83
2023/07/11 13:46:23;;;;;;;3.43;2.70;;;;;;;;;;5052661;28;20906;-87
2023/07/11 13:48:49;;;;;;;2.67;2.40;;;;;;;;;;5053042;28;20963;-82
2023/07/11 13:51:18;;;;;;;4.43;2.73;;;;;;;;;;5051555;28;20440;-80
2023/07/11 13:53:46;;;;;;;3.50;2.53;;;;;;;;;;5052591;28;20535;-79
2023/07/11 13:56:12;;;;;;;5.17;3.37;;;;;;;;;;5051252;28;21041;-79
2023/07/11 13:58:38;;;;;;;3.37;2.80;;;;;;;;;;5052929;28;20412;-88
2023/07/11 14:01:09;;;;;;;3.43;2.80;;;;;;;;;;5050306;28;20181;-91
2023/07/11 14:03:35;;;;;;;3.40;2.50;;;;;;;;;;5043505;28;20780;-80
2023/07/11 14:06:01;;;;;;;6.20;2.90;;;;;;;;;;5052103;28;20427;-80
2023/07/11 14:08:27;;;;;;;2.97;2.17;;;;;;;;;;5052526;28;20174;-78
2023/07/11 14:10:53;;;;;;;3.70;2.87;;;;;;;;;;5051999;28;20463;-82
2023/07/11 14:13:26;;;;;;;4.90;3.10;;;;;;;;;;5052479;28;20416;-85
2023/07/11 14:15:53;;;;;;;3.50;2.37;;;;;;;;;;5054971;28;20212;-90
2023/07/11 14:18:19;;;;;;;3.47;3.07;;;;;;;;;;5057268;28;20423;-92
2023/07/11 14:20:44;;;;;;;3.70;3.17;;;;;;;;;;5046163;28;20436;-82
2023/07/11 14:23:20;;;;;;;4.40;3.03;;;;;;;;;;5055044;28;20947;-93
2023/07/11 14:25:46;;;;;;;5.50;3.07;;;;;;;;;;5056584;28;20169;-92
2023/07/11 14:28:13;;;;;;;3.37;2.77;;;;;;;;;;5057034;28;20422;-92
2023/07/11 14:30:42;;;;;;;3.70;3.03;;;;;;;;;;5057117;28;20176;-93
2023/07/11 14:33:11;;;;;;;4.80;3.10;;;;;;;;;;5057142;28;20415;-95
2023/07/11 14:35:38;;;;;;;5.50;2.93;;;;;;;;;;5056848;28;20517;-93
2023/07/11 14:38:04;;;;;;;4.23;2.97;;;;;;;;;;5051045;28;20507;-94
2023/07/11 14:40:32;;;;;;;4.37;2.60;;;;;;;;;;5047272;28;20432;-91
2023/07/11 14:42:58;;;;;;;4.10;3.20;;;;;;;;;;5056493;28;20511;-94
2023/07/11 14:45:30;;;;;;;3.37;2.40;;;;;;;;;;5056237;28;20444;-89
2023/07/11 14:47:59;;;;;;;3.40;3.10;;;;;;;;;;5055933;28;20177;-94
2023/07/11 14:50:26;;;;;;;3.73;3.43;;;;;;;;;;5056047;28;20439;-91